Aviation Digital Data Service (ADDS)

Output produced by METARs form (2025 UTC 20 August 2019)
found at http://www.aviationweather.gov/metar/data/
 
Forecast for: DNSO (SOKOTO , NG)
Text: TAF DNSO 201100Z 2012/2118 25010KT 9999 BKN012 FEW020CB
Forecast period: 1200 UTC 20 August 2019 to 0200 UTC 21 August 2019
Forecast type: FROM: standard forecast or significant change
Winds: from the WSW (250 degrees) at 12 MPH (10 knots; 5.1 m/s)
Visibility: 6 or more miles 10+ km)
Ceiling: 1200 feet AGL
Clouds: broken clouds at 1200 feet AGL
few clouds at 2000 feet AGL
Weather: no significant weather forecast for this period
Text: TEMPO 2016/2022 06020KT 5000 TSRA BKN011 FEW018CB
Forecast period: 1600 to 2200 UTC 20 August 2019
Forecast type: TEMPORARY: The following changes expected for less than half the time period
Winds: from the ENE (60 degrees) at 23 MPH (20 knots; 10.3 m/s)
Visibility: 3 miles (5 km)
Ceiling: 1100 feet AGL
Clouds: broken clouds at 1100 feet AGL
few clouds at 1800 feet AGL
Weather: TSRA  (rain associated with thunderstorm(s))
Text: BECMG 2102/2104 FEW010
Forecast period: 0200 to 1800 UTC 21 August 2019
Forecast type: BECOMING: Conditions expected to become as follows by 0400 UTC 21 August 2019
Winds: from the WSW (250 degrees) at 12 MPH (10 knots; 5.1 m/s)
Visibility: 6 or more miles 10+ km)
Ceiling: at least 12,000 feet AGL
Clouds: few clouds at 1000 feet AGL
Weather: no significant weather forecast for this period